This is the latest recevied weather packets stored in our database for station/object HK4LRM-13. If no packets are shown the sender has not sent any weather packets the latest 10 day(s).
| Time | Temp. | Humidity | Pressure | Rain* | Wind** | Luminosity | Snow |
|---|---|---|---|---|---|---|---|
| 1787593169 | 27.22° C | 45% | 1011 hPa | 0 mm | - | - | - |
| 1787592628 | 27.22° C | 45% | 1011 hPa | 0 mm | - | - | - |
| 1787592088 | 27.22° C | 44% | 1011 hPa | 0 mm | - | - | - |
| 1787591547 | 27.22° C | 44% | 1011 hPa | 0 mm | - | - | - |
| 1787591007 | 27.78° C | 43% | 1010 hPa | 0 mm | - | - | - |
| 1787590466 | 28.33° C | 43% | 1011 hPa | 0 mm | - | - | - |
| 1787589926 | 28.33° C | 43% | 1011 hPa | 0 mm | - | - | - |
| 1787589385 | 26.11° C | 49% | 1011 hPa | 0 mm | - | - | - |
| 1787588845 | 25.56° C | 53% | 1012 hPa | 0 mm | - | - | - |
| 1787588304 | 25.56° C | 54% | 1012 hPa | 0 mm | - | - | - |
| 1787587764 | 25.56° C | 55% | 1012 hPa | 0 mm | - | - | - |
| 1787587223 | 26.11° C | 58% | 1012 hPa | 0 mm | - | - | - |
| 1787586683 | 26.11° C | 58% | 1012 hPa | 0 mm | - | - | - |
| 1787586142 | 25° C | 63% | 1012 hPa | 0 mm | - | - | - |
| 1787585602 | 25° C | 63% | 1012 hPa | 0 mm | - | - | - |
| 1787585061 | 25° C | 63% | 1013 hPa | 0 mm | - | - | - |
| 1787584521 | 25° C | 63% | 1013 hPa | 0 mm | - | - | - |
| 1787583980 | 25° C | 64% | 1013 hPa | 0 mm | - | - | - |
| 1787583440 | 25° C | 65% | 1013 hPa | 0 mm | - | - | - |
| 1787582899 | 25° C | 64% | 1014 hPa | 0 mm | - | - | - |
| 1787582359 | 22.22° C | 69% | 1015 hPa | 0 mm | - | - | - |
| 1787581818 | 22.22° C | 70% | 1015 hPa | 0 mm | - | - | - |
| 1787581278 | 21.67° C | 72% | 1015 hPa | 0 mm | - | - | - |
| 1787580738 | 21.67° C | 72% | 1015 hPa | 0 mm | - | - | - |
| 1787580197 | 21.11° C | 74% | 1015 hPa | 0 mm | - | - | - |
* Rain latest hour (hover to see other rain measurements)
** Current wind speed in m/s (hover to see current wind gust speed)